Flight Track Log - Related Links

Times and Time Zones

All times are in EDT time to prevent confusion due to time zone crossing. See the SWA1435 flight status page for this flight to view local times or setup timezone preferences in your user account.

Time Position Orientation Groundspeed Altitude Reporting Facility
EDT Latitude Longitude Course Direction KTS MPH feet Rate Location/Type
Tue 09:27:18 AM 38.7614 -90.3464 55° Northeast 165 190 2,200  Level FAA TRACON SMA TRACON (SMA)
Tue 09:27:38 AM 38.7700 -90.3644 301° West 185 213 2,700 2,000 Climbing FAA TRACON SMA TRACON (SMA)
Tue 09:27:57 AM 38.7792 -90.3842 301° West 204 235 3,500 2,850 Climbing FAA TRACON SMA TRACON (SMA)
Tue 09:28:18 AM 38.7917 -90.4089 303° West 215 247 4,600 2,634 Climbing FAA TRACON SMA TRACON (SMA)
Tue 09:28:38 AM 38.8019 -90.4297 302° West 222 255 5,300 2,250 Climbing FAA TRACON SMA TRACON (SMA)
Tue 09:28:58 AM 38.8131 -90.4514 303° West 232 267 6,100 2,923 Climbing FAA TRACON SMA TRACON (SMA)
Tue 09:29:17 AM 38.8275 -90.4800 303° West 248 285 7,200 2,550 Climbing FAA TRACON SMA TRACON (SMA)
Tue 09:29:38 AM 38.8400 -90.5044 303° West 262 302 7,800 1,902 Climbing FAA TRACON SMA TRACON (SMA)
Tue 09:29:58 AM 38.8531 -90.5306 303° West 279 321 8,500 2,700 Climbing FAA TRACON SMA TRACON (SMA)
Tue 09:30:18 AM 38.8706 -90.5650 303° West 298 343 9,600 3,000 Climbing FAA TRACON SMA TRACON (SMA)
Tue 09:30:38 AM 38.8853 -90.5933 304° West 308 354 10,500 1,650 Climbing FAA TRACON SMA TRACON (SMA)
Tue 09:30:58 AM 38.9003 -90.6239 302° West 323 372 10,700 1,200 Climbing FAA TRACON SMA TRACON (SMA)
Tue 09:31:18 AM 38.9217 -90.6650 304° West 355 409 11,300 2,462 Climbing FAA TRACON SMA TRACON (SMA)
Tue 09:31:37 AM 38.9392 -90.6989 304° West 370 426 12,300 2,923 Climbing FAA TRACON SMA TRACON (SMA)
Tue 09:31:57 AM 38.9558 -90.7333 302° West 372 428 13,200 2,927 Climbing FAA TRACON SMA TRACON (SMA)
Tue 09:32:18 AM 38.9778 -90.7753 304° West 370 426 14,300 2,927 Climbing FAA TRACON SMA TRACON (SMA)
Tue 09:32:38 AM 38.9942 -90.8103 301° West 371 427 15,200 2,615 Climbing FAA TRACON SMA TRACON (SMA)
Tue 09:32:57 AM 39.0128 -90.8439 305° West 374 430 16,000 3,600 Climbing FAA TRACON SMA TRACON (SMA)
Tue 09:33:18 AM 39.0331 -90.8872 301° West 369 425 17,600 4,390 Climbing FAA TRACON SMA TRACON (SMA)
Tue 09:33:38 AM 39.0492 -90.9192 303° West 354 407 19,000 2,850 Climbing FAA TRACON SMA TRACON (SMA)
Tue 09:33:58 AM 39.0661 -90.9494 306° West 340 391 19,500 1,800 Climbing FAA TRACON SMA TRACON (SMA)
Tue 09:34:18 AM 39.0864 -90.9903 303° West 348 400 20,200 2,154 Climbing FAA TRACON SMA TRACON (SMA)
Tue 09:34:37 AM 39.1017 -91.0236 301° West 353 406 20,900 2,250 Climbing FAA TRACON SMA TRACON (SMA)
Tue 09:34:58 AM 39.1158 -91.0581 298° West 355 409 21,700 2,488 Climbing FAA TRACON SMA TRACON (SMA)
Tue 09:35:18 AM 39.1350 -91.0997 301° West 352 405 22,600 2,250 Climbing FAA TRACON SMA TRACON (SMA)
Tue 09:35:38 AM 39.1489 -91.1347 297° West 355 409 23,200 1,692 Climbing FAA TRACON SMA TRACON (SMA)
Tue 09:35:57 AM 39.1656 -91.1675 303° West 357 411 23,700 1,800 Climbing FAA TRACON SMA TRACON (SMA)
Tue 09:36:18 AM 39.1836 -91.2117 298° West 361 415 24,400 2,049 Climbing FAA TRACON SMA TRACON (SMA)
Tue 09:36:38 AM 39.2028 -91.2436 308° West 365 420 25,100 2,400 Climbing FAA TRACON SMA TRACON (SMA)
Tue 09:36:58 AM 39.2239 -91.2856 303° West 364 419 26,000 2,250 Climbing FAA TRACON SMA TRACON (SMA)
Tue 09:37:18 AM 39.2408 -91.3189 303° West 363 418 26,600 1,050 Climbing FAA TRACON SMA TRACON (SMA)
Tue 09:37:38 AM 39.2606 -91.3511 308° West 367 422 26,700 154 Climbing FAA TRACON SMA TRACON (SMA)
Tue 09:37:57 AM 39.2797 -91.3853 306° West 379 436 26,700 150 Level FAA TRACON SMA TRACON (SMA)
Tue 09:38:18 AM 39.2961 -91.4103 310° West 389 448 26,800 758 Climbing FAA TRACON SMA TRACON (SMA)
Tue 09:39:32 AM 39.3761 -91.6267 296° West 404 465 27,900 971 Climbing Kansas City Center
Tue 09:40:34 AM 39.4378 -91.7406 305° West 405 466 29,000 1,426 Climbing Kansas City Center
Tue 09:41:34 AM 39.5008 -91.8578 305° West 401 461 30,800 1,548 Climbing Kansas City Center
Tue 09:42:38 AM 39.5617 -91.9731 304° West 393 452 32,200 1,548 Climbing Kansas City Center
Tue 09:43:38 AM 39.6339 -92.1083 305° West 384 442 34,000 893 Climbing Kansas City Center
Tue 09:44:39 AM 39.6914 -92.2178 304° West 375 432 34,000  Level Kansas City Center
Tue 09:45:42 AM 39.7497 -92.3242 306° West 365 420 34,000  Level Kansas City Center
Tue 09:46:43 AM 39.8064 -92.4331 304° West 364 419 34,000  Level Kansas City Center
Tue 09:47:44 AM 39.8636 -92.5406 305° West 362 417 34,000  Level Kansas City Center
Tue 09:48:47 AM 39.9206 -92.6486 305° West 363 418 34,000  Level Kansas City Center
Tue 09:49:46 AM 39.9783 -92.7583 305° West 366 421 34,000  Level Kansas City Center
Tue 09:50:50 AM 40.0347 -92.8675 304° West 363 418 34,000  Level Kansas City Center
Tue 09:51:50 AM 40.1019 -92.9986 304° West 362 417 34,000  Level Kansas City Center
Tue 09:52:52 AM 40.1553 -93.1056 303° West 354 407 34,000  Level Kansas City Center
Tue 09:53:54 AM 40.2119 -93.2133 305° West 358 412 34,000  Level Kansas City Center
Tue 09:54:55 AM 40.2672 -93.3203 304° West 358 412 34,000  Level Kansas City Center
Tue 09:55:56 AM 40.3219 -93.4272 304° West 355 409 34,000  Level Kansas City Center
Tue 09:56:58 AM 40.3786 -93.5378 304° West 363 418 34,000  Level Kansas City Center
Tue 09:57:58 AM 40.4342 -93.6481 304° West 364 419 34,000  Level Kansas City Center
Tue 09:58:59 AM 40.4900 -93.7586 304° West 364 419 34,000  Level Kansas City Center
Tue 10:00:03 AM 40.5575 -93.8928 304° West 367 422 34,000 -192 Level Kansas City Center
Tue 10:01:04 AM 40.6047 -94.0081 298° West 365 420 33,600 -414 Descending Kansas City Center
Tue 10:01:30 AM 40.6106 -94.0322 288° West 362 417 33,400 -1,023 Descending Minneapolis Center
Tue 10:02:32 AM 40.6272 -94.1786 279° West 342 394 32,100 -1,122 Descending Minneapolis Center
Tue 10:03:33 AM 40.6475 -94.2994 283° West 340 391 31,100 -1,561 Descending Minneapolis Center
Tue 10:04:35 AM 40.6692 -94.4231 283° West 346 398 28,900 -2,488 Descending Minneapolis Center
Tue 10:05:36 AM 40.6944 -94.5744 282° West 353 406 26,000 -2,488 Descending Minneapolis Center
Tue 10:06:38 AM 40.7111 -94.6836 281° West 342 394 23,800 -2,129 Descending Minneapolis Center
Tue 10:07:40 AM 40.7308 -94.8006 283° West 331 381 21,600 -2,422 Descending Minneapolis Center
Tue 10:08:27 AM 40.7622 -94.9014 292° West 309 356 19,400 -2,278 Descending Minneapolis Center
Tue 10:09:28 AM 40.7789 -95.0094 282° West 299 344 17,500 -1,895 Descending Minneapolis Center
Tue 10:09:43 AM 40.7686 -95.0411 247° West 304 350 17,000 -2,300 Descending Minneapolis Center
Tue 10:10:28 AM 40.8094 -95.1131 307° West 319 367 15,200 -2,032 Descending Minneapolis Center
Tue 10:10:45 AM 40.8086 -95.1403 268° West 311 358 14,900 -1,923 Descending Minneapolis Center
Tue 10:11:46 AM 40.8633 -95.2267 310° West 308 354 12,700 -2,270 Descending Minneapolis Center
Tue 10:12:36 AM 40.9172 -95.2981 315° West 302 348 10,700 -1,784 Descending Minneapolis Center
Tue 10:13:00 AM 40.9147 -95.3131 258° West 303 349 10,500 -1,800 Descending Minneapolis Center
Tue 10:13:36 AM 40.9672 -95.3858 314° West 274 315 8,900 -2,226 Descending Minneapolis Center
Tue 10:14:02 AM 40.9733 -95.4094 289° West 291 335 8,200 -1,592 Descending Minneapolis Center
Tue 10:14:25 AM 41.0031 -95.4475 316° Northwest 276 318 7,600 -1,377 Descending Minneapolis Center
Tue 10:15:03 AM 41.0200 -95.4878 299° West 281 323 6,800 -1,778 Descending Minneapolis Center
Tue 10:15:19 AM 41.0414 -95.5175 314° West 259 298 6,000 -1,645 Descending Minneapolis Center
Tue 10:16:05 AM 41.0633 -95.5608 304° West 268 308 5,100 -1,611 Descending Minneapolis Center
Tue 10:17:07 AM 41.1136 -95.6419 309° West 251 289 3,100 -1,024 Descending Minneapolis Center
Tue 10:18:08 AM 41.1469 -95.7064 304° West 231 266 3,000 -49 Descending Minneapolis Center
Tue 10:19:10 AM 41.1789 -95.7806 300° West 202 232 3,000  Level Minneapolis Center
Tue 10:20:10 AM 41.2189 -95.8175 325° Northwest 157 181 3,000 -397 Level Minneapolis Center
Tue 10:21:11 AM 41.2481 -95.8472 323° Northwest 124 143 2,200 -738 Descending Minneapolis Center
Tue 10:22:12 AM 41.2772 -95.8744 325° Northwest 121 139 1,500 -711 Descending Minneapolis Center
Tue 10:22:27 AM 41.2808 -95.8753 350° North 141 162 1,300 -316 Descending Minneapolis Center
Tue 10:23:28 AM 41.3064 -95.8986 326° Northwest 135 155 1,100 -197 Descending Minneapolis Center

Login

Don't have an account? Register now (free) for customized features, flight alerts, and more!